Flight Track Log - Related Links

Times and Time Zones

All times are in EDT time to prevent confusion due to time zone crossing. See the CHQ5099 flight status page for this flight to view local times or setup timezone preferences in your user account.

Time Position Orientation Groundspeed Altitude Reporting Facility
EDT Latitude Longitude Course Direction KTS MPH feet Rate Location/Type
08:35PM 39.7333 -86.3000 22° Northeast 148 170 1,500  Level Indianapolis TRACON
08:39PM 39.9611 -86.1781 12° North 275 316 10,500 2,174 Climbing Chicago Center
08:40PM 40.0458 -86.1550 11° North 292 336 12,300 1,250 Climbing Chicago Center
08:41PM 40.1328 -86.1319 41° Northeast 305 351 13,000 1,350 Climbing Chicago Center
08:42PM 40.2056 -86.0494 North 326 375 15,000 1,050 Climbing Chicago Center
08:43PM 40.2947 -86.0342 329° Northwest 339 390 15,100  Climbing Chicago Center
08:44PM 40.3736 -86.0958 320° Northwest 352 405 15,000 -50 Descending Chicago Center
08:45PM 40.4403 -86.1689 317° Northwest 330 380 15,000  Level Chicago Center
08:46PM 40.5072 -86.2503 320° Northwest 320 368 15,000  Level Chicago Center
08:47PM 40.5739 -86.3239 322° Northwest 320 368 15,000  Level Chicago Center
08:48PM 40.6358 -86.3867 320° Northwest 320 368 15,000  Level Chicago Center
08:49PM 40.7089 -86.4683 321° Northwest 310 357 15,000  Level Chicago Center
08:50PM 40.7775 -86.5419 320° Northwest 310 357 15,000  Level Chicago Center
08:51PM 40.8417 -86.6133 320° Northwest 308 354 15,000  Level Chicago Center
08:52PM 40.9103 -86.6903 322° Northwest 318 366 15,000 50 Level Chicago Center
08:53PM 40.9764 -86.7592 320° Northwest 318 366 15,100 50 Climbing Chicago Center
08:54PM 41.0428 -86.8336 319° Northwest 318 366 15,100 -350 Level Chicago Center
08:55PM 41.1069 -86.9083 320° Northwest 318 366 14,400 -1,100 Descending Chicago Center
08:56PM 41.1667 -86.9750 323° Northwest 313 360 12,900 -1,150 Descending Chicago Center
08:57PM 41.2242 -87.0336 320° Northwest 289 333 12,100 -450 Descending Chicago Center
08:58PM 41.2883 -87.1061 319° Northwest 295 339 12,000 -50 Descending Chicago Center
08:59PM 41.3500 -87.1786 320° Northwest 295 339 12,000  Level Chicago Center
09:00PM 41.4119 -87.2483 318° Northwest 290 334 12,000 -400 Level Chicago Center
09:01PM 41.4758 -87.3239 318° Northwest 297 342 11,200 -465 Descending Chicago Center
09:02PM 41.5667 -87.4333 322° Northwest 346 398 11,000 -100 Descending Chicago TRACON
09:03PM 41.6225 -87.4917 320° Northwest 335 386 11,000 -108 Level Chicago Center
09:04PM 41.6883 -87.5647 320° Northwest 334 384 10,800 -955 Descending Chicago Center
09:05PM 41.7456 -87.6300 319° Northwest 300 345 8,900 -1,727 Descending Chicago Center
09:06PM 41.8114 -87.7061 274° West 266 306 7,000 -974 Descending Chicago Center
09:07PM 41.8167 -87.8000 255° West 246 283 7,000  Level Chicago TRACON
09:08PM 41.8000 -87.8833 270° West 213 245 7,000 -600 Level Chicago TRACON
09:09PM 41.8000 -87.9500 228° Southwest 206 237 5,800 -991 Descending Chicago TRACON
09:10PM 41.7667 -88.0000 323° Northwest 198 228 5,100 -496 Descending Chicago TRACON
09:11PM 41.8000 -88.0333 323° Northwest 192 221 4,800 -273 Descending Chicago TRACON

Login

Don't have an account? Register now (free) for customized features, flight alerts, and more!